createdAt,value
2023-02-12T00:00:03.643Z,15.83
2023-02-12T00:02:30.842Z,14.87
2023-02-12T00:04:57.563Z,16.07
2023-02-12T00:07:24.299Z,15.60
2023-02-12T00:09:50.987Z,14.83
2023-02-12T00:12:17.703Z,15.53
2023-02-12T00:14:44.453Z,15.07
2023-02-12T00:17:11.218Z,14.43
2023-02-12T00:19:38.225Z,13.47
2023-02-12T00:22:04.965Z,13.80
2023-02-12T00:24:32.248Z,12.90
2023-02-12T00:26:59.070Z,12.47
2023-02-12T00:29:25.783Z,13.53
2023-02-12T00:31:52.659Z,13.73
2023-02-12T00:34:19.356Z,12.97
2023-02-12T00:36:46.006Z,12.93
2023-02-12T00:39:12.791Z,13.57
2023-02-12T00:41:39.462Z,12.47
2023-02-12T00:44:06.143Z,12.87
2023-02-12T00:46:32.851Z,13.53
2023-02-12T00:48:59.658Z,13.53
2023-02-12T00:51:26.353Z,12.93
2023-02-12T00:53:53.043Z,13.67
2023-02-12T00:56:19.775Z,13.30
2023-02-12T00:58:46.603Z,13.30
2023-02-12T01:01:13.497Z,13.60
2023-02-12T01:03:40.212Z,12.87
2023-02-12T01:06:07.165Z,13.00
2023-02-12T01:08:34.073Z,12.90
2023-02-12T01:11:04.367Z,12.87
2023-02-12T01:13:32.432Z,13.77
2023-02-12T01:16:03.332Z,12.67
2023-02-12T01:18:30.125Z,12.93
2023-02-12T01:20:59.038Z,13.47
2023-02-12T01:23:25.995Z,12.93
2023-02-12T01:25:52.991Z,13.60
2023-02-12T01:28:19.839Z,13.17
2023-02-12T01:30:46.538Z,12.40
2023-02-12T01:33:13.411Z,12.57
2023-02-12T01:35:40.120Z,12.47
2023-02-12T01:38:06.844Z,12.27
2023-02-12T01:40:33.548Z,12.33
2023-02-12T01:43:03.907Z,13.53
2023-02-12T01:45:36.705Z,12.90
2023-02-12T01:48:03.669Z,13.57
2023-02-12T01:50:30.587Z,13.50
2023-02-12T01:52:58.749Z,12.50
2023-02-12T01:55:25.821Z,12.53
2023-02-12T01:57:52.604Z,12.50
2023-02-12T02:00:22.801Z,14.00
2023-02-12T02:02:56.855Z,11.90
2023-02-12T02:05:38.271Z,14.70
2023-02-12T02:08:05.262Z,12.87
2023-02-12T02:10:31.943Z,13.60
2023-02-12T02:13:17.667Z,18.07
2023-02-12T02:15:49.174Z,13.90
2023-02-12T02:18:26.370Z,13.30
2023-02-12T02:21:27.105Z,14.33
2023-02-12T02:24:05.755Z,12.60
2023-02-12T02:26:50.529Z,12.93
2023-02-12T02:29:54.984Z,12.47
2023-02-12T02:32:25.614Z,11.90
2023-02-12T02:35:24.615Z,12.57
2023-02-12T02:38:28.721Z,12.47
2023-02-12T02:41:04.728Z,11.20
2023-02-12T02:43:47.092Z,11.43
2023-02-12T02:46:37.336Z,11.20
2023-02-12T02:49:08.372Z,11.33
2023-02-12T02:51:41.067Z,11.63
2023-02-12T02:54:23.128Z,10.73
2023-02-12T02:56:52.238Z,11.07
2023-02-12T02:59:25.422Z,10.83
2023-02-12T03:01:56.941Z,10.63
2023-02-12T03:04:59.165Z,11.17
2023-02-12T03:07:29.807Z,10.57
2023-02-12T03:10:01.921Z,11.40
2023-02-12T03:12:53.064Z,11.23
2023-02-12T03:15:47.306Z,10.03
2023-02-12T03:18:29.463Z,11.10
2023-02-12T03:21:05.898Z,10.27
2023-02-12T03:23:40.341Z,11.10
2023-02-12T03:26:11.885Z,12.57
2023-02-12T03:28:40.453Z,10.87
2023-02-12T03:31:33.826Z,11.57
2023-02-12T03:34:13.690Z,10.60
2023-02-12T03:37:03.552Z,11.10
2023-02-12T03:39:48.918Z,10.57
2023-02-12T03:42:57.895Z,11.07
2023-02-12T03:45:50.348Z,11.13
2023-02-12T03:48:22.791Z,10.83
2023-02-12T03:50:58.547Z,10.83
2023-02-12T03:53:27.502Z,10.70
2023-02-12T03:55:59.813Z,10.43
2023-02-12T03:58:29.367Z,10.43
2023-02-12T04:00:56.991Z,11.03
2023-02-12T04:03:24.410Z,11.37
2023-02-12T04:05:51.087Z,11.40
2023-02-12T04:08:18.013Z,11.17
2023-02-12T04:11:20.668Z,11.40
2023-02-12T04:13:59.482Z,11.17
2023-02-12T04:16:30.930Z,10.97
2023-02-12T04:18:57.980Z,11.20
2023-02-12T04:22:02.372Z,11.33
2023-02-12T04:24:57.500Z,11.93
2023-02-12T04:27:47.582Z,11.20
2023-02-12T04:30:22.604Z,10.90
2023-02-12T04:33:03.671Z,10.73
2023-02-12T04:35:40.508Z,11.83
2023-02-12T04:38:13.676Z,11.80
2023-02-12T04:40:42.083Z,11.43
2023-02-12T04:43:09.284Z,11.43
2023-02-12T04:45:37.421Z,11.60
2023-02-12T04:48:04.992Z,11.97
2023-02-12T04:50:43.419Z,11.40
2023-02-12T04:53:11.000Z,11.60
2023-02-12T04:55:37.885Z,12.47
2023-02-12T04:58:05.523Z,11.37
2023-02-12T05:00:32.392Z,12.27
2023-02-12T05:02:59.127Z,11.50
2023-02-12T05:05:26.229Z,12.00
2023-02-12T05:07:53.045Z,11.50
2023-02-12T05:10:19.905Z,11.83
2023-02-12T05:12:46.547Z,12.27
2023-02-12T05:15:13.236Z,12.13
2023-02-12T05:17:39.917Z,12.53
2023-02-12T05:20:07.159Z,12.53
2023-02-12T05:22:34.512Z,11.87
2023-02-12T05:25:01.132Z,12.07
2023-02-12T05:27:27.779Z,11.60
2023-02-12T05:29:54.369Z,12.97
2023-02-12T05:32:21.042Z,12.33
2023-02-12T05:34:47.735Z,12.33
2023-02-12T05:37:14.573Z,11.57
2023-02-12T05:39:41.333Z,13.90
2023-02-12T05:42:07.932Z,12.23
2023-02-12T05:44:34.654Z,14.27
2023-02-12T05:47:01.369Z,14.73
2023-02-12T05:49:28.140Z,14.57
2023-02-12T05:51:54.807Z,13.73
2023-02-12T05:54:21.445Z,14.23
2023-02-12T05:56:48.640Z,15.87
2023-02-12T05:59:21.627Z,22.20
2023-02-12T06:01:50.201Z,21.53
2023-02-12T06:04:20.029Z,21.53
2023-02-12T06:06:46.842Z,14.30
2023-02-12T06:09:14.296Z,14.47
2023-02-12T06:11:41.903Z,13.77
2023-02-12T06:14:12.680Z,14.40
2023-02-12T06:16:39.696Z,14.97
2023-02-12T06:19:07.067Z,14.10
2023-02-12T06:21:34.169Z,14.27
2023-02-12T06:24:00.905Z,14.57
2023-02-12T06:26:28.046Z,14.67
2023-02-12T06:28:55.007Z,14.67
2023-02-12T06:31:27.483Z,13.83
2023-02-12T06:33:55.789Z,14.27
2023-02-12T06:36:22.928Z,14.27
2023-02-12T06:38:50.477Z,14.53
2023-02-12T06:41:17.263Z,15.43
2023-02-12T06:43:43.996Z,14.77
2023-02-12T06:46:11.124Z,15.30
2023-02-12T06:48:38.552Z,16.77
2023-02-12T06:51:10.207Z,18.40
2023-02-12T06:53:36.920Z,17.13
2023-02-12T06:56:13.034Z,17.27
2023-02-12T06:58:47.255Z,16.47
2023-02-12T07:01:17.826Z,17.53
2023-02-12T07:03:48.662Z,16.50
2023-02-12T07:06:15.536Z,16.60
2023-02-12T07:08:42.221Z,15.40
2023-02-12T07:11:09.036Z,16.17
2023-02-12T07:13:36.150Z,16.60
2023-02-12T07:16:08.094Z,17.43
2023-02-12T07:18:36.288Z,16.93
2023-02-12T07:21:04.451Z,16.90
2023-02-12T07:23:31.194Z,17.57
2023-02-12T07:26:03.881Z,17.97
2023-02-12T07:28:34.020Z,17.67
2023-02-12T07:31:22.502Z,19.10
2023-02-12T07:33:49.647Z,17.07
2023-02-12T07:36:18.229Z,16.17
2023-02-12T07:38:45.424Z,16.67
2023-02-12T07:41:14.613Z,21.43
2023-02-12T07:43:46.374Z,21.53
2023-02-12T07:46:23.782Z,24.13
2023-02-12T07:48:52.234Z,23.03
2023-02-12T07:51:19.477Z,20.67
2023-02-12T07:53:46.709Z,20.63
2023-02-12T07:56:25.759Z,21.13
2023-02-12T07:58:53.592Z,21.20
2023-02-12T08:01:21.939Z,22.83
2023-02-12T08:03:50.071Z,23.00
2023-02-12T08:06:26.563Z,21.93
2023-02-12T08:08:56.148Z,21.43
2023-02-12T08:11:24.095Z,23.37
2023-02-12T08:13:51.280Z,22.53
2023-02-12T08:16:20.745Z,20.57
2023-02-12T08:18:49.581Z,22.27
2023-02-12T08:21:18.865Z,22.13
2023-02-12T08:23:46.422Z,22.27
2023-02-12T08:26:17.064Z,23.13
2023-02-12T08:28:49.432Z,21.63
2023-02-12T08:31:43.926Z,20.63
2023-02-12T08:34:22.569Z,22.00
2023-02-12T08:36:51.062Z,21.10
2023-02-12T08:39:18.778Z,21.20
2023-02-12T08:41:46.246Z,20.17
2023-02-12T08:44:13.461Z,21.43
2023-02-12T08:46:45.954Z,21.50
2023-02-12T08:49:15.310Z,22.50
2023-02-12T08:51:48.733Z,20.97
2023-02-12T08:54:19.008Z,20.87
2023-02-12T08:56:45.782Z,22.60
2023-02-12T08:59:14.060Z,21.87
2023-02-12T09:01:41.855Z,22.00
2023-02-12T09:04:18.464Z,22.27
2023-02-12T09:06:46.473Z,19.93
2023-02-12T09:09:13.874Z,20.03
2023-02-12T09:11:40.627Z,19.40
2023-02-12T09:14:10.642Z,19.23
2023-02-12T09:16:37.824Z,20.07
2023-02-12T09:19:04.684Z,22.40
2023-02-12T09:21:31.690Z,22.37
2023-02-12T09:23:58.612Z,21.27
2023-02-12T09:26:26.171Z,19.63
2023-02-12T09:28:53.594Z,21.50
2023-02-12T09:31:26.472Z,20.00
2023-02-12T09:33:55.517Z,19.97
2023-02-12T09:36:22.281Z,21.43
2023-02-12T09:38:49.578Z,21.07
2023-02-12T09:41:28.254Z,21.83
2023-02-12T09:44:19.192Z,22.90
2023-02-12T09:46:51.715Z,20.30
2023-02-12T09:49:51.843Z,21.40
2023-02-12T09:52:22.411Z,20.23
2023-02-12T09:54:49.931Z,19.00
2023-02-12T09:57:36.630Z,17.83
2023-02-12T10:00:12.361Z,19.70
2023-02-12T10:02:40.607Z,18.67
2023-02-12T10:05:20.585Z,19.53
2023-02-12T10:07:59.006Z,18.63
2023-02-12T10:10:28.480Z,17.20
2023-02-12T10:13:04.262Z,20.10
2023-02-12T10:15:45.616Z,19.70
2023-02-12T10:18:41.172Z,19.47
2023-02-12T10:21:19.693Z,20.23
2023-02-12T10:24:02.433Z,18.73
2023-02-12T10:26:31.696Z,17.97
2023-02-12T10:29:09.201Z,18.97
2023-02-12T10:31:40.341Z,18.70
2023-02-12T10:34:18.791Z,18.67
2023-02-12T10:36:52.693Z,18.20
2023-02-12T10:39:35.224Z,17.80
2023-02-12T10:42:16.593Z,18.27
2023-02-12T10:44:43.265Z,17.30
2023-02-12T10:47:20.263Z,17.77
2023-02-12T10:49:52.245Z,18.27
2023-02-12T10:52:46.888Z,18.00
2023-02-12T10:55:27.060Z,17.97
2023-02-12T10:57:54.539Z,15.87
2023-02-12T11:00:26.263Z,15.43
2023-02-12T11:03:02.929Z,16.73
2023-02-12T11:05:32.970Z,15.03
2023-02-12T11:08:00.617Z,15.53
2023-02-12T11:10:28.831Z,16.43
2023-02-12T11:12:55.963Z,17.73
2023-02-12T11:15:25.261Z,15.67
2023-02-12T11:18:07.688Z,15.60
2023-02-12T11:20:38.864Z,14.73
2023-02-12T11:23:22.896Z,12.90
2023-02-12T11:26:16.961Z,13.47
2023-02-12T11:28:54.376Z,12.27
2023-02-12T11:31:32.433Z,11.60
2023-02-12T11:34:14.125Z,11.50
2023-02-12T11:36:44.216Z,11.83
2023-02-12T11:39:24.718Z,10.97
2023-02-12T11:41:59.973Z,11.83
2023-02-12T11:44:32.228Z,11.90
2023-02-12T11:47:10.446Z,11.63
2023-02-12T11:49:48.488Z,10.80
2023-02-12T11:52:24.761Z,11.83
2023-02-12T11:54:54.855Z,11.23
2023-02-12T11:57:47.481Z,9.90
2023-02-12T12:00:27.145Z,10.67
2023-02-12T12:03:31.516Z,9.60
2023-02-12T12:06:06.999Z,8.43
2023-02-12T12:08:45.028Z,8.80
2023-02-12T12:11:40.555Z,8.90
2023-02-12T12:14:59.779Z,8.57
2023-02-12T12:17:59.922Z,8.33
2023-02-12T12:20:30.999Z,8.23
2023-02-12T12:23:14.297Z,7.40
2023-02-12T12:25:49.318Z,9.25
2023-02-12T12:28:34.466Z,8.50
2023-02-12T12:31:10.101Z,7.97
2023-02-12T12:33:50.357Z,7.25
2023-02-12T12:36:35.127Z,6.85
2023-02-12T12:39:34.644Z,6.63
2023-02-12T12:42:22.982Z,3.92
2023-02-12T12:45:17.490Z,4.20
2023-02-12T12:47:53.208Z,4.68
2023-02-12T12:51:04.649Z,3.80
2023-02-12T12:53:56.704Z,3.55
2023-02-12T12:56:41.894Z,2.85
2023-02-12T12:59:28.304Z,3.10
2023-02-12T13:02:03.919Z,3.38
2023-02-12T13:05:01.262Z,3.40
2023-02-12T13:07:46.421Z,4.97
2023-02-12T13:10:31.735Z,4.25
2023-02-12T13:13:20.657Z,5.78
2023-02-12T13:16:01.116Z,4.35
2023-02-12T13:19:05.257Z,4.40
2023-02-12T13:21:45.375Z,4.40
2023-02-12T13:24:20.058Z,4.55
2023-02-12T13:26:59.527Z,4.40
2023-02-12T13:29:40.208Z,4.53
2023-02-12T13:32:27.170Z,4.75
2023-02-12T13:34:55.472Z,4.80
2023-02-12T13:37:36.775Z,5.88
2023-02-12T13:40:13.900Z,5.88
2023-02-12T13:43:07.650Z,5.40
2023-02-12T13:45:34.246Z,5.35
2023-02-12T13:48:31.799Z,6.22
2023-02-12T13:51:11.667Z,6.25
2023-02-12T13:54:04.891Z,5.47
2023-02-12T13:56:43.970Z,5.43
2023-02-12T13:59:32.781Z,6.30
2023-02-12T14:02:05.320Z,6.88
2023-02-12T14:04:47.674Z,6.57
2023-02-12T14:07:15.972Z,5.68
2023-02-12T14:09:50.363Z,6.82
2023-02-12T14:12:26.337Z,6.57
2023-02-12T14:14:54.618Z,7.80
2023-02-12T14:17:30.826Z,7.43
2023-02-12T14:20:28.478Z,7.20
2023-02-12T14:23:02.156Z,8.07
2023-02-12T14:25:43.720Z,7.95
2023-02-12T14:28:43.387Z,7.45
2023-02-12T14:31:19.442Z,7.90
2023-02-12T14:33:48.496Z,8.27
2023-02-12T14:36:16.832Z,8.38
2023-02-12T14:38:47.679Z,7.88
2023-02-12T14:41:43.092Z,7.05
2023-02-12T14:44:20.680Z,7.78
2023-02-12T14:46:54.831Z,7.75
2023-02-12T14:49:27.552Z,8.43
2023-02-12T14:51:57.917Z,7.50
2023-02-12T14:54:30.908Z,8.60
2023-02-12T14:57:02.348Z,7.63
2023-02-12T14:59:33.551Z,7.93
2023-02-12T15:02:04.043Z,7.40
2023-02-12T15:04:36.696Z,8.15
2023-02-12T15:07:20.473Z,8.27
2023-02-12T15:09:57.862Z,8.02
2023-02-12T15:12:32.652Z,9.10
2023-02-12T15:15:15.290Z,9.25
2023-02-12T15:17:54.525Z,9.07
2023-02-12T15:20:24.951Z,9.48
2023-02-12T15:22:51.672Z,9.13
2023-02-12T15:25:33.196Z,8.90
2023-02-12T15:28:04.579Z,9.18
2023-02-12T15:30:36.621Z,8.88
2023-02-12T15:33:06.699Z,9.07
2023-02-12T15:35:37.604Z,9.32
2023-02-12T15:38:07.598Z,8.35
2023-02-12T15:40:35.107Z,9.50
2023-02-12T15:43:07.589Z,9.18
2023-02-12T15:45:36.329Z,8.88
2023-02-12T15:48:17.847Z,8.90
2023-02-12T15:50:58.860Z,9.02
2023-02-12T15:53:30.725Z,8.00
2023-02-12T15:55:59.808Z,8.35
2023-02-12T15:58:49.993Z,8.75
2023-02-12T16:01:25.744Z,9.10
2023-02-12T16:03:58.353Z,8.48
2023-02-12T16:06:27.202Z,8.35
2023-02-12T16:09:07.104Z,9.02
2023-02-12T16:11:35.255Z,8.68
2023-02-12T16:14:19.327Z,9.18
2023-02-12T16:16:49.302Z,9.73
2023-02-12T16:19:37.199Z,8.80
2023-02-12T16:22:08.992Z,9.55
2023-02-12T16:24:39.468Z,9.50
2023-02-12T16:27:15.184Z,8.88
2023-02-12T16:29:48.340Z,9.10
2023-02-12T16:32:30.609Z,8.63
2023-02-12T16:35:04.974Z,9.50
2023-02-12T16:37:37.393Z,9.15
2023-02-12T16:40:13.147Z,9.60
2023-02-12T16:42:48.972Z,9.15
2023-02-12T16:45:28.239Z,10.63
2023-02-12T16:48:05.429Z,9.98
2023-02-12T16:50:34.153Z,9.67
2023-02-12T16:53:07.329Z,12.05
2023-02-12T16:55:34.478Z,11.48
2023-02-12T16:58:01.443Z,12.75
2023-02-12T17:00:28.094Z,13.45
2023-02-12T17:02:55.937Z,15.35
2023-02-12T17:05:23.418Z,13.25
2023-02-12T17:07:50.812Z,10.80
2023-02-12T17:10:17.816Z,11.20
2023-02-12T17:12:46.569Z,9.43
2023-02-12T17:15:28.429Z,11.55
2023-02-12T17:17:55.190Z,10.05
2023-02-12T17:20:21.878Z,8.83
2023-02-12T17:22:52.339Z,9.90
2023-02-12T17:25:19.323Z,9.70
2023-02-12T17:27:46.383Z,11.03
2023-02-12T17:30:18.389Z,9.90
2023-02-12T17:32:45.096Z,9.47
2023-02-12T17:35:11.817Z,9.80
2023-02-12T17:37:38.485Z,9.60
2023-02-12T17:40:06.870Z,9.10
2023-02-12T17:42:35.205Z,9.90
2023-02-12T17:45:01.924Z,9.90
2023-02-12T17:47:29.808Z,9.90
2023-02-12T17:49:56.545Z,10.20
2023-02-12T17:52:23.282Z,9.40
2023-02-12T17:54:49.917Z,10.03
2023-02-12T17:57:16.898Z,12.20
2023-02-12T17:59:43.749Z,10.83
2023-02-12T18:02:12.040Z,10.80
2023-02-12T18:04:39.361Z,14.33
2023-02-12T18:07:06.242Z,13.40
2023-02-12T18:09:33.070Z,10.80
2023-02-12T18:12:00.020Z,11.27
2023-02-12T18:14:26.747Z,10.33
2023-02-12T18:16:53.480Z,12.07
2023-02-12T18:19:20.194Z,12.27
2023-02-12T18:21:47.605Z,14.07
2023-02-12T18:24:14.288Z,14.30
2023-02-12T18:26:41.036Z,12.33
2023-02-12T18:29:07.705Z,11.80
2023-02-12T18:31:35.160Z,10.20
2023-02-12T18:34:02.055Z,9.80
2023-02-12T18:36:28.797Z,9.47
2023-02-12T18:38:55.515Z,9.47
2023-02-12T18:41:25.908Z,9.80
2023-02-12T18:43:53.150Z,9.70
2023-02-12T18:46:23.082Z,9.37
2023-02-12T18:48:50.306Z,9.33
2023-02-12T18:51:22.496Z,9.07
2023-02-12T18:54:01.381Z,9.83
2023-02-12T18:56:33.509Z,10.07
2023-02-12T18:59:04.775Z,12.47
2023-02-12T19:01:32.924Z,17.27
2023-02-12T19:04:02.331Z,18.90
2023-02-12T19:06:30.626Z,15.23
2023-02-12T19:08:59.114Z,14.80
2023-02-12T19:11:27.719Z,14.73
2023-02-12T19:13:55.018Z,12.83
2023-02-12T19:16:23.741Z,12.87
2023-02-12T19:18:56.011Z,12.63
2023-02-12T19:21:26.145Z,12.40
2023-02-12T19:23:54.945Z,13.83
2023-02-12T19:26:22.597Z,37.60
2023-02-12T19:28:49.446Z,82.23
2023-02-12T19:31:22.253Z,96.70
2023-02-12T19:33:50.285Z,82.10
2023-02-12T19:36:19.142Z,26.63
2023-02-12T19:38:47.896Z,19.93
2023-02-12T19:41:17.372Z,20.37
2023-02-12T19:43:44.780Z,23.50
2023-02-12T19:46:19.570Z,21.90
2023-02-12T19:48:47.812Z,21.40
2023-02-12T19:51:20.550Z,20.67
2023-02-12T19:53:48.330Z,17.60
2023-02-12T19:56:16.098Z,16.77
2023-02-12T19:58:42.989Z,16.53
2023-02-12T20:01:15.146Z,16.03
2023-02-12T20:03:41.828Z,14.10
2023-02-12T20:06:14.216Z,14.47
2023-02-12T20:08:42.631Z,14.40
2023-02-12T20:11:13.871Z,13.70
2023-02-12T20:13:41.410Z,14.20
2023-02-12T20:16:11.524Z,13.23
2023-02-12T20:18:39.213Z,15.03
2023-02-12T20:21:33.270Z,13.80
2023-02-12T20:24:01.704Z,15.30
2023-02-12T20:26:32.866Z,15.57
2023-02-12T20:29:00.113Z,16.40
2023-02-12T20:31:30.851Z,15.80
2023-02-12T20:34:09.056Z,15.70
2023-02-12T20:36:38.162Z,16.57
2023-02-12T20:39:07.161Z,15.87
2023-02-12T20:41:36.960Z,13.97
2023-02-12T20:44:09.039Z,14.30
2023-02-12T20:46:37.833Z,15.53
2023-02-12T20:49:05.271Z,16.10
2023-02-12T20:51:32.360Z,17.93
2023-02-12T20:54:02.761Z,18.10
2023-02-12T20:56:34.514Z,19.07
2023-02-12T20:59:02.151Z,20.17
2023-02-12T21:01:37.561Z,18.97
2023-02-12T21:04:07.385Z,17.80
2023-02-12T21:06:34.537Z,17.13
2023-02-12T21:09:01.426Z,18.27
2023-02-12T21:11:29.538Z,19.37
2023-02-12T21:14:02.469Z,20.23
2023-02-12T21:16:41.136Z,19.10
2023-02-12T21:19:09.055Z,19.33
2023-02-12T21:21:39.556Z,18.07
2023-02-12T21:24:11.094Z,17.77
2023-02-12T21:26:37.762Z,18.00
2023-02-12T21:29:04.836Z,17.07
2023-02-12T21:31:37.535Z,15.30
2023-02-12T21:34:06.769Z,16.17
2023-02-12T21:36:41.477Z,16.37
2023-02-12T21:39:11.020Z,15.47
2023-02-12T21:41:40.211Z,14.50
2023-02-12T21:44:08.331Z,14.73
2023-02-12T21:46:35.960Z,14.50
2023-02-12T21:49:03.940Z,14.67
2023-02-12T21:51:37.240Z,15.30
2023-02-12T21:54:07.661Z,16.23
2023-02-12T21:56:36.859Z,14.73
2023-02-12T21:59:04.636Z,15.17
2023-02-12T22:01:34.557Z,15.17
2023-02-12T22:04:02.684Z,16.20
2023-02-12T22:06:29.645Z,14.60
2023-02-12T22:09:01.453Z,14.87
2023-02-12T22:11:28.131Z,15.43
2023-02-12T22:13:54.804Z,16.00
2023-02-12T22:16:24.241Z,15.60
2023-02-12T22:18:56.393Z,14.97
2023-02-12T22:21:24.929Z,15.70
2023-02-12T22:23:52.133Z,15.23
2023-02-12T22:26:21.866Z,15.03
2023-02-12T22:28:51.016Z,14.57
2023-02-12T22:31:20.131Z,15.53
2023-02-12T22:33:48.023Z,15.20
2023-02-12T22:36:15.048Z,16.07
2023-02-12T22:38:41.719Z,17.60
2023-02-12T22:41:09.585Z,16.73
2023-02-12T22:43:38.337Z,16.07
2023-02-12T22:46:06.207Z,15.37
2023-02-12T22:48:32.878Z,16.03
2023-02-12T22:50:59.990Z,15.57
2023-02-12T22:53:27.166Z,13.60
2023-02-12T22:55:53.888Z,13.67
2023-02-12T22:58:20.635Z,14.57
2023-02-12T23:00:47.248Z,14.17
2023-02-12T23:03:13.993Z,13.13
2023-02-12T23:05:40.697Z,13.77
2023-02-12T23:08:07.390Z,13.20
2023-02-12T23:10:34.102Z,12.87
2023-02-12T23:13:02.936Z,13.43
2023-02-12T23:15:30.465Z,14.67
2023-02-12T23:17:57.166Z,13.80
2023-02-12T23:20:23.917Z,13.40
2023-02-12T23:22:50.556Z,13.20
2023-02-12T23:25:17.294Z,13.33
2023-02-12T23:27:43.976Z,12.03
2023-02-12T23:30:11.202Z,13.43
2023-02-12T23:32:37.878Z,13.87
2023-02-12T23:35:04.843Z,13.30
2023-02-12T23:37:31.540Z,13.13
2023-02-12T23:39:58.270Z,13.17
2023-02-12T23:42:24.972Z,13.53
2023-02-12T23:44:51.641Z,13.07
2023-02-12T23:47:18.625Z,13.13
2023-02-12T23:49:45.260Z,12.50
2023-02-12T23:52:11.903Z,12.30
2023-02-12T23:54:41.679Z,11.93
2023-02-12T23:57:08.339Z,13.43
2023-02-12T23:59:35.110Z,12.13
